createdAt,value
2023-04-18T00:03:05.112Z,8.95
2023-04-18T00:09:47.443Z,9.75
2023-04-18T00:16:29.630Z,10.38
2023-04-18T00:23:14.178Z,10.73
2023-04-18T00:29:56.445Z,10.68
2023-04-18T00:36:38.618Z,10.25
2023-04-18T00:43:25.658Z,10.35
2023-04-18T00:50:09.919Z,10.30
2023-04-18T00:56:52.195Z,11.07
2023-04-18T01:03:35.014Z,10.02
2023-04-18T01:10:18.120Z,11.98
2023-04-18T01:17:01.558Z,10.38
2023-04-18T01:23:44.294Z,11.75
2023-04-18T01:30:30.564Z,11.48
2023-04-18T01:37:13.898Z,10.50
2023-04-18T01:43:56.283Z,11.63
2023-04-18T01:50:38.461Z,10.02
2023-04-18T01:57:20.821Z,11.32
2023-04-18T02:04:04.795Z,10.30
2023-04-18T02:10:47.023Z,10.65
2023-04-18T02:17:30.450Z,10.68
2023-04-18T02:24:12.916Z,10.70
2023-04-18T02:30:59.789Z,11.23
2023-04-18T02:37:42.012Z,10.37
2023-04-18T02:44:24.386Z,9.98
2023-04-18T02:51:08.597Z,9.73
2023-04-18T02:57:53.265Z,11.57
2023-04-18T03:04:56.611Z,10.48
2023-04-18T03:11:39.414Z,10.77
2023-04-18T03:18:21.830Z,10.70
2023-04-18T03:25:07.011Z,10.02
2023-04-18T03:32:06.477Z,10.10
2023-04-18T03:38:48.870Z,11.13
2023-04-18T03:45:31.529Z,10.50
2023-04-18T03:52:13.907Z,11.75
2023-04-18T03:58:58.718Z,10.70
2023-04-18T04:05:41.399Z,11.67
2023-04-18T04:12:23.927Z,11.73
2023-04-18T04:19:06.323Z,10.82
2023-04-18T04:25:55.970Z,9.80
2023-04-18T04:32:54.608Z,10.82
2023-04-18T04:39:37.072Z,11.50
2023-04-18T04:46:34.027Z,10.45
2023-04-18T04:53:21.047Z,11.60
2023-04-18T05:00:08.279Z,11.05
2023-04-18T05:06:50.990Z,10.63
2023-04-18T05:13:33.138Z,9.77
2023-04-18T05:20:16.036Z,11.30
2023-04-18T05:26:58.282Z,10.15
2023-04-18T05:33:40.565Z,10.63
2023-04-18T05:40:22.818Z,10.63
2023-04-18T05:47:08.122Z,9.70
2023-04-18T06:00:32.355Z,9.88
2023-04-18T06:07:14.927Z,10.27
2023-04-18T06:13:57.016Z,10.50
2023-04-18T06:20:39.793Z,10.82
2023-04-18T06:27:30.663Z,10.45
2023-04-18T06:34:14.357Z,9.50
2023-04-18T06:40:56.776Z,9.63
2023-04-18T06:47:40.585Z,9.23
2023-04-18T06:54:22.819Z,9.75
2023-04-18T07:01:05.231Z,10.20
2023-04-18T07:07:47.505Z,9.05
2023-04-18T07:14:30.433Z,8.98
2023-04-18T07:21:13.421Z,8.95
2023-04-18T07:27:55.876Z,8.65
2023-04-18T07:34:40.355Z,9.32
2023-04-18T07:41:22.650Z,7.40
2023-04-18T07:48:06.025Z,7.88
2023-04-18T07:54:48.282Z,7.93
2023-04-18T08:01:31.038Z,8.82
2023-04-18T08:08:13.603Z,8.50
2023-04-18T08:14:55.900Z,8.30
2023-04-18T08:21:39.227Z,8.65
2023-04-18T08:28:21.560Z,9.40
2023-04-18T08:35:04.340Z,8.80
2023-04-18T08:41:57.434Z,9.00
2023-04-18T08:48:39.711Z,8.45
2023-04-18T08:55:25.318Z,10.02
2023-04-18T09:02:09.019Z,8.65
2023-04-18T09:08:59.218Z,8.87
2023-04-18T09:15:41.663Z,10.02
2023-04-18T09:22:23.850Z,8.70
2023-04-18T09:29:06.363Z,9.48
2023-04-18T09:35:48.586Z,9.80
2023-04-18T09:42:36.537Z,8.77
2023-04-18T09:49:19.033Z,9.65
2023-04-18T09:56:02.306Z,8.68
2023-04-18T10:02:58.690Z,9.95
2023-04-18T10:09:44.958Z,8.68
2023-04-18T10:16:28.727Z,8.88
2023-04-18T10:23:48.989Z,9.67
2023-04-18T10:30:44.412Z,9.20
2023-04-18T10:37:26.983Z,9.02
2023-04-18T10:44:09.208Z,7.95
2023-04-18T10:51:17.656Z,9.00
2023-04-18T10:58:00.693Z,8.30
2023-04-18T11:04:42.874Z,8.95
2023-04-18T11:11:25.326Z,10.65
2023-04-18T11:18:09.582Z,10.30
2023-04-18T11:24:52.143Z,9.80
2023-04-18T11:31:34.292Z,11.35
2023-04-18T11:38:17.239Z,11.40
2023-04-18T11:44:59.374Z,9.82
2023-04-18T11:51:46.246Z,10.18
2023-04-18T11:58:36.315Z,9.70
2023-04-18T12:05:27.704Z,9.40
2023-04-18T12:12:09.995Z,9.43
2023-04-18T12:19:00.443Z,9.00
2023-04-18T12:25:42.613Z,9.45
2023-04-18T12:32:24.769Z,9.52
2023-04-18T12:39:07.106Z,9.48
2023-04-18T12:45:50.076Z,9.18
2023-04-18T12:52:32.451Z,9.13
2023-04-18T12:59:14.988Z,8.82
2023-04-18T13:05:57.328Z,8.27
2023-04-18T13:12:40.835Z,7.47
2023-04-18T13:19:26.191Z,8.68
2023-04-18T13:33:10.647Z,8.32
2023-04-18T13:39:52.893Z,7.90
2023-04-18T13:46:35.126Z,8.50
2023-04-18T13:53:18.401Z,8.27
2023-04-18T14:00:00.623Z,7.32
2023-04-18T14:06:42.901Z,7.75
2023-04-18T14:13:25.200Z,7.10
2023-04-18T14:20:08.604Z,7.50
2023-04-18T14:26:50.969Z,6.75
2023-04-18T14:33:34.212Z,6.22
2023-04-18T14:40:16.931Z,6.50
2023-04-18T14:46:59.154Z,5.13
2023-04-18T14:53:41.773Z,5.70
2023-04-18T15:00:23.922Z,5.47
2023-04-18T15:07:06.264Z,5.93
2023-04-18T15:13:48.474Z,5.57
2023-04-18T15:20:31.086Z,5.28
2023-04-18T15:27:13.375Z,6.13
2023-04-18T15:33:55.631Z,5.05
2023-04-18T15:40:38.214Z,5.13
2023-04-18T15:47:20.538Z,4.78
2023-04-18T15:54:02.964Z,5.22
2023-04-18T16:00:45.142Z,5.10
2023-04-18T16:07:27.278Z,4.90
2023-04-18T16:14:09.624Z,3.95
2023-04-18T16:20:51.893Z,4.15
2023-04-18T16:27:34.149Z,4.43
2023-04-18T16:34:16.398Z,3.97
2023-04-18T16:41:00.578Z,3.85
2023-04-18T16:47:42.747Z,3.40
2023-04-18T16:54:25.137Z,3.30
2023-04-18T17:01:08.699Z,4.22
2023-04-18T17:07:51.720Z,3.80
2023-04-18T17:14:33.964Z,3.42
2023-04-18T17:21:16.242Z,2.97
2023-04-18T17:27:58.714Z,3.33
2023-04-18T17:34:40.852Z,2.40
2023-04-18T17:41:23.259Z,3.40
2023-04-18T17:48:06.007Z,2.95
2023-04-18T17:54:49.156Z,3.67
2023-04-18T18:01:31.821Z,3.65
2023-04-18T18:08:14.019Z,3.97
2023-04-18T18:14:58.057Z,4.15
2023-04-18T18:21:41.088Z,3.85
2023-04-18T18:28:23.305Z,3.30
2023-04-18T18:35:06.326Z,3.22
2023-04-18T18:41:48.499Z,3.17
2023-04-18T18:48:32.231Z,5.38
2023-04-18T18:55:15.249Z,2.83
2023-04-18T19:01:57.520Z,2.63
2023-04-18T19:08:39.858Z,2.67
2023-04-18T19:15:22.830Z,3.17
2023-04-18T19:22:06.486Z,4.32
2023-04-18T19:28:49.094Z,2.20
2023-04-18T19:35:31.359Z,2.40
2023-04-18T19:42:13.634Z,2.40
2023-04-18T19:48:55.778Z,2.80
2023-04-18T19:55:39.162Z,2.15
2023-04-18T20:02:21.621Z,2.30
2023-04-18T20:09:05.649Z,2.20
2023-04-18T20:15:47.950Z,1.92
2023-04-18T20:22:32.290Z,1.95
2023-04-18T20:29:14.752Z,1.70
2023-04-18T20:35:58.851Z,2.20
2023-04-18T20:42:40.989Z,2.38
2023-04-18T20:49:23.254Z,2.45
2023-04-18T20:56:06.110Z,2.83
2023-04-18T21:02:48.373Z,2.40
2023-04-18T21:09:36.383Z,2.10
2023-04-18T21:16:18.677Z,2.90
2023-04-18T21:23:00.851Z,2.25
2023-04-18T21:29:43.213Z,2.35
2023-04-18T21:36:30.716Z,1.73
2023-04-18T21:43:12.880Z,2.42
2023-04-18T21:49:55.819Z,1.73
2023-04-18T21:56:38.309Z,2.50
2023-04-18T22:03:20.767Z,1.83
2023-04-18T22:10:05.942Z,2.25
2023-04-18T22:16:50.070Z,2.03
2023-04-18T22:23:32.344Z,1.75
2023-04-18T22:30:14.857Z,2.38
2023-04-18T22:36:57.039Z,2.00
2023-04-18T22:43:39.271Z,3.10
2023-04-18T22:50:21.674Z,2.00
2023-04-18T22:57:04.199Z,1.77
2023-04-18T23:03:46.671Z,1.67
2023-04-18T23:10:29.016Z,1.75
2023-04-18T23:17:11.116Z,1.60
2023-04-18T23:23:53.300Z,1.88
2023-04-18T23:30:37.033Z,1.80
2023-04-18T23:37:19.236Z,2.20
2023-04-18T23:44:01.355Z,1.95
2023-04-18T23:50:54.758Z,2.22
2023-04-18T23:57:37.280Z,1.98
